Time;durP1;ratioP1;P1;durP2;ratioP2;P2;SDS_P1;SDS_P2;PMS_P1;PMS_P2;Temp;Humidity;BMP_temperature;BMP_pressure;BME280_temperature;BME280_humidity;BME280_pressure;Samples;Min_cycle;Max_cycle;Signal;HPM_P1;HPM_P2
2022/09/28 00:01:51;;;;;;;0.90;0.90;;;;;;;18.23;82.98;98645.44;5054995;28;20060;-93
2022/09/28 00:04:17;;;;;;;0.93;0.90;;;;;;;18.01;83.06;98614.78;5055862;28;20120;-94
2022/09/28 00:06:59;;;;;;;1.20;1.17;;;;;;;18.23;82.56;98648.13;5056775;28;20125;-94
2022/09/28 00:09:25;;;;;;;0.93;0.93;;;;;;;17.82;82.50;98612.34;5056817;28;20028;-94
2022/09/28 00:11:52;;;;;;;0.45;0.45;;;;;;;17.62;82.40;98576.25;5053766;28;20032;-94
2022/09/28 00:14:19;;;;;;;2.58;1.60;;;;;;;18.06;82.10;98638.50;5045150;28;20025;-94
2022/09/28 00:16:45;;;;;;;0.75;0.75;;;;;;;17.96;82.45;98619.53;5034007;28;20032;-93
2022/09/28 00:19:12;;;;;;;3.83;3.33;;;;;;;18.16;82.03;98654.78;5033163;28;20036;-94
2022/09/28 00:22:01;;;;;;;1.73;1.63;;;;;;;18.18;81.86;98652.88;5034809;28;20491;-96
2022/09/28 00:24:28;;;;;;;0.30;0.30;;;;;;;17.98;81.53;98630.97;5051982;28;20388;-96
2022/09/28 00:26:55;;;;;;;0.50;0.50;;;;;;;17.97;81.37;98623.06;5035042;28;20410;-95
2022/09/28 00:29:28;;;;;;;0.38;0.38;;;;;;;18.17;81.05;98644.00;5047125;28;20037;-96
2022/09/28 00:32:05;;;;;;;2.30;2.10;;;;;;;17.65;80.83;98596.53;5057022;28;20037;-96
2022/09/28 00:34:42;;;;;;;1.10;1.10;;;;;;;17.54;80.72;98547.38;5074763;28;20060;-95
2022/09/28 00:37:08;;;;;;;0.73;0.55;;;;;;;17.49;80.52;98544.16;5044546;28;20040;-96
2022/09/28 00:39:36;;;;;;;0.38;0.38;;;;;;;18.06;80.27;98631.34;5064636;28;20491;-96
2022/09/28 00:42:09;;;;;;;5.05;1.65;;;;;;;17.73;80.58;98578.25;5023563;28;20175;-96
2022/09/28 00:45:10;;;;;;;0.50;0.50;;;;;;;17.65;80.67;98596.53;5042138;28;20029;-95
2022/09/28 00:47:55;;;;;;;2.22;2.03;;;;;;;17.75;80.69;98586.16;5046577;28;20033;-96
2022/09/28 00:50:35;;;;;;;1.40;1.30;;;;;;;17.31;80.68;98532.81;5047242;28;20468;-96
2022/09/28 00:53:10;;;;;;;2.10;1.02;;;;;;;17.75;80.36;98581.69;5020362;28;20061;-95
2022/09/28 00:55:39;;;;;;;0.60;0.45;;;;;;;17.85;80.73;98592.63;5017413;28;20542;-94
2022/09/28 00:58:10;;;;;;;0.25;0.25;;;;;;;17.64;81.07;98552.16;5033537;28;20055;-95
2022/09/28 01:00:36;;;;;;;1.30;1.20;;;;;;;17.94;80.97;98612.59;5033078;28;20498;-93
2022/09/28 01:03:03;;;;;;;1.80;1.70;;;;;;;17.70;81.00;98575.75;5016664;28;20566;-95
2022/09/28 01:05:30;;;;;;;0.30;0.30;;;;;;;17.74;81.28;98619.13;5013208;28;20063;-95
2022/09/28 01:08:04;;;;;;;0.85;0.85;;;;;;;17.33;80.83;98546.03;5013937;28;20064;-95
2022/09/28 01:10:30;;;;;;;2.10;2.00;;;;;;;17.54;80.51;98613.19;5013234;28;20561;-95
2022/09/28 01:12:57;;;;;;;8.05;3.08;;;;;;;17.29;81.85;98588.00;5013446;28;20087;-96
2022/09/28 01:15:27;;;;;;;1.83;1.73;;;;;;;17.22;82.28;98575.16;5022573;28;20029;-95
2022/09/28 01:18:03;;;;;;;1.83;1.70;;;;;;;17.23;83.23;98588.38;5017186;28;20048;-95
2022/09/28 01:21:10;;;;;;;3.15;2.85;;;;;;;17.19;86.34;98613.50;5035835;28;20059;-96
2022/09/28 01:24:09;;;;;;;0.90;0.88;;;;;;;17.29;86.49;98608.50;5032570;28;20096;-96
2022/09/28 01:27:06;;;;;;;0.95;0.95;;;;;;;17.44;85.57;98612.03;5034173;28;20078;-95
2022/09/28 01:29:45;;;;;;;2.10;2.00;;;;;;;17.53;84.94;98616.78;5035703;28;20033;-96
2022/09/28 01:32:48;;;;;;;1.40;1.33;;;;;;;17.47;84.43;98607.38;5034244;28;20044;-96
2022/09/28 01:35:52;;;;;;;0.47;0.47;;;;;;;17.34;84.68;98612.56;5051971;28;20026;-95
2022/09/28 01:38:25;;;;;;;0.30;0.30;;;;;;;17.18;84.44;98594.00;5034393;28;20039;-95
2022/09/28 01:40:53;;;;;;;2.08;1.85;;;;;;;17.17;83.66;98586.94;5033294;28;20025;-92
2022/09/28 01:43:23;;;;;;;2.90;1.75;;;;;;;17.31;82.30;98583.44;5042222;28;20045;-93
2022/09/28 01:45:59;;;;;;;6.50;4.20;;;;;;;17.17;82.73;98602.06;5052520;28;20037;-93
2022/09/28 01:48:32;;;;;;;4.57;4.15;;;;;;;17.36;81.91;98616.03;5054137;28;20116;-95
2022/09/28 01:51:02;;;;;;;4.85;3.22;;;;;;;17.23;81.87;98607.03;5052906;28;20041;-94
2022/09/28 01:53:48;;;;;;;10.63;5.07;;;;;;;16.91;81.18;98556.50;5036703;28;20037;-95
2022/09/28 01:57:05;;;;;;;8.55;5.75;;;;;;;17.05;80.87;98587.66;5055559;28;20037;-94
2022/09/28 01:59:38;;;;;;;10.60;6.70;;;;;;;17.32;79.09;98614.47;5045796;28;20036;-95
2022/09/28 02:02:23;;;;;;;5.30;2.30;;;;;;;17.09;80.23;98613.19;5037164;28;20466;-95
2022/09/28 02:05:04;;;;;;;2.83;2.55;;;;;;;16.95;80.92;98619.31;5054004;28;20033;-95
2022/09/28 02:08:15;;;;;;;1.77;1.05;;;;;;;16.58;80.72;98569.97;5055294;28;20068;-96
2022/09/28 02:10:50;;;;;;;5.22;1.75;;;;;;;16.93;80.75;98633.66;4977839;28;20120;-94
2022/09/28 02:13:26;;;;;;;1.55;1.45;;;;;;;16.88;80.23;98623.28;5045641;28;20041;-92
2022/09/28 02:16:04;;;;;;;1.30;1.20;;;;;;;16.51;80.18;98588.09;5052345;28;20098;-92
2022/09/28 02:18:30;;;;;;;3.05;2.78;;;;;;;16.82;80.62;98636.91;5053634;28;20029;-92
2022/09/28 02:21:06;;;;;;;5.47;3.83;;;;;;;16.93;80.15;98623.91;5052729;28;20059;-94
2022/09/28 02:23:33;;;;;;;;;;;;;;;16.81;81.30;98629.91;5052681;28;20029;-93
2022/09/28 02:26:07;;;;;;;1.60;1.50;;;;;;;16.69;81.60;98623.47;5053473;28;20006;-93
2022/09/28 02:28:33;;;;;;;6.05;1.60;;;;;;;16.18;81.27;98556.28;5050237;28;20033;-92
2022/09/28 02:30:59;;;;;;;0.47;0.47;;;;;;;16.34;81.56;98585.53;5052349;28;20045;-92
2022/09/28 02:33:38;;;;;;;2.42;2.22;;;;;;;16.69;81.08;98615.47;5051381;28;20032;-93
2022/09/28 02:36:10;;;;;;;1.50;1.15;;;;;;;16.35;82.50;98608.53;5050575;28;20033;-94
2022/09/28 02:38:37;;;;;;;0.85;0.85;;;;;;;16.10;84.16;98591.28;5051684;28;20037;-93
2022/09/28 02:41:10;;;;;;;2.67;2.47;;;;;;;16.27;83.50;98635.59;5051401;28;20033;-92
2022/09/28 02:44:03;;;;;;;0.55;0.55;;;;;;;16.40;82.37;98614.47;5051298;28;20049;-92
2022/09/28 02:47:07;;;;;;;1.30;1.27;;;;;;;16.58;82.34;98633.88;5061229;28;20049;-94
2022/09/28 02:50:12;;;;;;;3.20;2.83;;;;;;;15.78;84.44;98538.06;5067299;28;20044;-96
2022/09/28 02:52:57;;;;;;;0.85;0.85;;;;;;;16.45;86.34;98633.69;5058561;28;20041;-94
2022/09/28 02:55:47;;;;;;;2.25;2.05;;;;;;;16.25;87.88;98614.38;5051213;28;20037;-93
2022/09/28 02:58:34;;;;;;;3.10;2.83;;;;;;;16.33;89.26;98623.72;5053433;28;20045;-94
2022/09/28 03:01:05;;;;;;;1.33;1.23;;;;;;;16.46;88.00;98632.75;5060477;28;20025;-94
2022/09/28 03:04:09;;;;;;;1.83;1.73;;;;;;;16.17;88.23;98592.63;5032013;28;20129;-93
2022/09/28 03:06:46;;;;;;;4.68;3.33;;;;;;;16.30;87.20;98579.53;5031261;28;20041;-95
2022/09/28 03:09:49;;;;;;;1.60;1.50;;;;;;;16.69;86.69;98620.78;5050569;28;20501;-95
2022/09/28 03:12:18;;;;;;;3.10;2.58;;;;;;;16.53;85.67;98591.53;5057829;28;20171;-96
2022/09/28 03:14:44;;;;;;;0.85;0.82;;;;;;;16.67;84.45;98630.69;5035480;28;20087;-96
2022/09/28 03:18:06;;;;;;;1.40;1.30;;;;;;;16.55;84.50;98637.56;5067672;28;20025;-96
2022/09/28 03:20:58;;;;;;;0.80;0.80;;;;;;;15.97;83.60;98568.94;5048962;28;20048;-96
2022/09/28 03:23:55;;;;;;;1.17;1.17;;;;;;;16.11;83.08;98609.81;5061821;28;20048;-95
2022/09/28 03:26:32;;;;;;;0.82;0.82;;;;;;;15.83;82.91;98583.00;5054748;28;20114;-96
2022/09/28 03:28:58;;;;;;;1.73;1.63;;;;;;;15.78;82.28;98577.09;5056686;28;20142;-92
2022/09/28 03:31:25;;;;;;;2.40;2.20;;;;;;;15.67;81.91;98564.34;5051772;28;20809;-95
2022/09/28 03:33:51;;;;;;;1.27;1.23;;;;;;;15.79;82.62;98579.66;5054321;28;20039;-94
2022/09/28 03:36:17;;;;;;;1.20;1.10;;;;;;;15.70;82.56;98564.19;5051226;28;20028;-94
2022/09/28 03:38:42;;;;;;;1.05;1.05;;;;;;;15.85;82.77;98600.59;5034026;28;20029;-90
2022/09/28 03:41:09;;;;;;;0.88;0.82;;;;;;;16.12;82.55;98626.63;5052096;28;20029;-94
2022/09/28 03:43:39;;;;;;;0.70;0.70;;;;;;;16.10;83.98;98663.97;5050712;28;20517;-92
2022/09/28 03:46:06;;;;;;;1.58;1.48;;;;;;;15.84;84.76;98614.81;5051637;28;20573;-96
2022/09/28 03:48:34;;;;;;;2.00;1.85;;;;;;;15.96;84.47;98615.97;5034454;28;20041;-93
2022/09/28 03:51:02;;;;;;;1.35;1.25;;;;;;;16.13;84.82;98656.75;5050107;28;20040;-89
2022/09/28 03:53:28;;;;;;;2.45;2.25;;;;;;;15.71;84.89;98597.81;5049891;28;20087;-94
2022/09/28 03:55:55;;;;;;;4.45;2.58;;;;;;;15.83;84.17;98585.66;5049502;28;20021;-92
2022/09/28 03:58:21;;;;;;;2.45;2.28;;;;;;;15.99;85.83;98655.72;5047724;28;20048;-86
2022/09/28 04:00:48;;;;;;;2.03;1.90;;;;;;;16.09;85.30;98672.03;5047799;28;20681;-87
2022/09/28 04:03:14;;;;;;;5.68;2.72;;;;;;;16.11;85.60;98660.38;5046514;28;20060;-89
2022/09/28 04:05:50;;;;;;;2.97;1.42;;;;;;;15.84;85.30;98624.63;5045503;28;20765;-91
2022/09/28 04:08:16;;;;;;;1.65;1.55;;;;;;;15.88;84.64;98621.72;5045913;28;20070;-88
2022/09/28 04:10:42;;;;;;;0.85;0.85;;;;;;;15.92;84.10;98620.56;5047521;28;20037;-88
2022/09/28 04:13:07;;;;;;;1.33;1.23;;;;;;;16.03;83.93;98643.94;5047926;28;20037;-87
2022/09/28 04:15:33;;;;;;;1.25;1.25;;;;;;;16.14;83.01;98661.13;5047485;28;20017;-86
2022/09/28 04:17:58;;;;;;;2.63;2.42;;;;;;;15.93;82.89;98637.41;5047154;28;20111;-86
2022/09/28 04:20:23;;;;;;;0.93;0.88;;;;;;;15.81;83.39;98641.59;5044970;28;20038;-85
2022/09/28 04:22:49;;;;;;;1.02;1.02;;;;;;;15.88;83.20;98637.66;5031499;28;20453;-86
2022/09/28 04:25:14;;;;;;;1.23;1.20;;;;;;;15.84;83.05;98636.09;5047189;28;20521;-85
2022/09/28 04:30:24;;;;;;;2.42;2.22;;;;;;;15.53;84.34;98645.66;5043044;28;20114;-90
2022/09/28 04:32:49;;;;;;;3.72;1.88;;;;;;;15.71;83.85;98651.81;5030573;28;20045;-90
2022/09/28 04:35:15;;;;;;;1.50;1.40;;;;;;;15.80;84.36;98661.16;5035179;28;20033;-91
2022/09/28 04:37:41;;;;;;;3.38;3.10;;;;;;;15.96;83.75;98662.97;5045143;28;20490;-91
2022/09/28 04:40:07;;;;;;;1.77;1.67;;;;;;;16.07;83.30;98682.75;5045872;28;20064;-91
2022/09/28 04:42:32;;;;;;;0.70;0.70;;;;;;;15.84;83.20;98651.22;5061686;28;20045;-92
2022/09/28 04:44:59;;;;;;;0.40;0.40;;;;;;;15.52;85.35;98636.00;5047099;28;20516;-92
2022/09/28 04:47:26;;;;;;;1.10;1.10;;;;;;;15.96;85.02;98703.75;5046356;28;20029;-89
2022/09/28 04:49:51;;;;;;;0.50;0.50;;;;;;;15.95;83.94;98677.22;5029463;28;20421;-94
2022/09/28 04:52:17;;;;;;;3.97;1.60;;;;;;;15.71;84.02;98712.97;5034321;28;20036;-96
2022/09/28 04:54:42;;;;;;;1.23;1.08;;;;;;;15.18;85.38;98679.34;5047414;28;20544;-91
2022/09/28 04:57:07;;;;;;;;;;;;;;;15.30;85.02;98710.59;5049207;28;20047;-91
2022/09/28 04:59:33;;;;;;;;;;;;;;;15.33;85.55;98721.06;5048053;28;19923;-91
2022/09/28 05:01:58;;;;;;;0.20;0.20;;;;;;;15.22;85.59;98695.03;5048679;28;19916;-94
2022/09/28 05:04:24;;;;;;;1.40;1.30;;;;;;;15.28;84.85;98680.59;5050087;28;20414;-89
2022/09/28 05:06:49;;;;;;;;;;;;;;;15.58;84.23;98727.81;5050489;28;20025;-92
2022/09/28 05:09:16;;;;;;;0.50;0.50;;;;;;;15.63;83.99;98727.59;5049486;28;20006;-91
2022/09/28 05:11:42;;;;;;;0.60;0.60;;;;;;;15.61;84.49;98732.13;5047727;28;20116;-92
2022/09/28 05:14:31;;;;;;;1.65;1.55;;;;;;;15.84;84.23;98745.13;5049204;28;20414;-94
2022/09/28 05:17:08;;;;;;;1.02;1.02;;;;;;;15.87;84.70;98733.47;5050103;28;20029;-96
2022/09/28 05:19:34;;;;;;;0.93;0.93;;;;;;;15.92;85.48;98731.44;5053229;28;20039;-92
2022/09/28 05:22:03;;;;;;;0.93;0.93;;;;;;;15.66;87.09;98700.84;5049458;28;20037;-90
2022/09/28 05:24:29;;;;;;;2.47;1.70;;;;;;;16.01;87.56;98708.81;5032621;28;20029;-93
2022/09/28 05:26:55;;;;;;;2.42;2.05;;;;;;;16.13;88.30;98717.94;5036418;28;20025;-93
2022/09/28 05:29:20;;;;;;;1.00;0.82;;;;;;;16.27;88.65;98718.06;5052652;28;20056;-90
2022/09/28 05:31:45;;;;;;;0.73;0.73;;;;;;;16.32;88.07;98709.84;5053403;28;20033;-92
2022/09/28 05:34:11;;;;;;;;;;;;;;;16.75;87.55;98726.09;5053955;28;20034;-90
2022/09/28 05:36:38;;;;;;;0.75;0.75;;;;;;;16.78;84.91;98686.00;5051637;28;19947;-89
2022/09/28 05:39:04;;;;;;;0.30;0.30;;;;;;;16.94;85.01;98670.88;5053131;28;20033;-91
2022/09/28 05:41:29;;;;;;;0.68;0.68;;;;;;;17.37;83.46;98736.81;5051650;28;20036;-91
2022/09/28 05:43:56;;;;;;;1.60;1.50;;;;;;;17.62;82.91;98730.06;5070261;28;20057;-88
2022/09/28 05:46:22;;;;;;;1.35;1.23;;;;;;;17.93;80.97;98739.75;5073207;28;20020;-88
2022/09/28 05:48:48;;;;;;;0.22;0.22;;;;;;;17.78;80.93;98697.97;5073035;28;20143;-92
2022/09/28 05:51:14;;;;;;;1.60;1.40;;;;;;;17.72;82.04;98732.06;5072921;28;20028;-90
2022/09/28 05:53:39;;;;;;;0.40;0.40;;;;;;;17.34;83.18;98687.22;5053990;28;20032;-92
2022/09/28 05:56:05;;;;;;;2.17;0.73;;;;;;;17.91;82.11;98717.66;5053820;28;20549;-93
2022/09/28 05:58:31;;;;;;;0.55;0.55;;;;;;;18.17;79.89;98716.06;5054861;28;20029;-93
2022/09/28 06:00:57;;;;;;;0.63;0.63;;;;;;;18.48;78.85;98735.50;5054551;28;20051;-93
2022/09/28 06:03:23;;;;;;;1.25;1.15;;;;;;;18.74;77.61;98741.03;5054201;28;20490;-91
2022/09/28 06:05:49;;;;;;;1.83;1.08;;;;;;;18.83;76.57;98681.66;5054611;28;20032;-95
2022/09/28 06:08:14;;;;;;;0.80;0.80;;;;;;;18.86;75.61;98713.56;5071085;28;20094;-92
2022/09/28 06:10:40;;;;;;;0.75;0.68;;;;;;;19.08;75.40;98718.34;5054099;28;20033;-92
2022/09/28 06:13:06;;;;;;;0.28;0.28;;;;;;;19.56;74.16;98733.91;5053382;28;20028;-92
2022/09/28 06:15:34;;;;;;;0.70;0.70;;;;;;;19.72;72.88;98731.03;5053807;28;20037;-92
2022/09/28 06:18:05;;;;;;;0.40;0.40;;;;;;;19.89;72.72;98754.00;5054016;28;20056;-92
2022/09/28 06:20:34;;;;;;;0.63;0.63;;;;;;;20.10;72.09;98721.41;5071366;28;20032;-92
2022/09/28 06:23:00;;;;;;;1.23;0.43;;;;;;;20.34;71.95;98749.13;5053780;28;20060;-94
2022/09/28 06:25:26;;;;;;;1.52;1.35;;;;;;;20.47;71.98;98751.78;5053323;28;20028;-94
2022/09/28 06:28:16;;;;;;;0.10;0.10;;;;;;;20.58;71.40;98709.00;5054980;28;20054;-95
2022/09/28 06:30:42;;;;;;;0.32;0.32;;;;;;;21.20;70.74;98760.84;5054521;28;20036;-94
2022/09/28 06:33:13;;;;;;;0.47;0.30;;;;;;;21.35;70.87;98779.44;5055133;28;20028;-94
2022/09/28 06:35:39;;;;;;;0.77;0.77;;;;;;;20.93;69.31;98737.78;5072742;28;20107;-94
2022/09/28 06:38:05;;;;;;;0.73;0.73;;;;;;;21.04;68.61;98722.75;5055225;28;20032;-93
2022/09/28 06:40:32;;;;;;;0.88;0.88;;;;;;;21.27;68.02;98742.47;5054290;28;20113;-92
2022/09/28 06:43:01;;;;;;;0.73;0.73;;;;;;;21.12;65.72;98744.47;5072639;28;20052;-94
2022/09/28 06:45:28;;;;;;;0.40;0.40;;;;;;;20.75;66.16;98705.13;5054970;28;20029;-94
2022/09/28 06:47:56;;;;;;;0.10;0.10;;;;;;;20.73;65.39;98711.59;5055719;28;20032;-95
2022/09/28 06:50:26;;;;;;;0.52;0.47;;;;;;;20.59;66.75;98752.75;5055115;28;20040;-95
2022/09/28 06:52:53;;;;;;;0.10;0.10;;;;;;;20.42;67.62;98734.31;5054847;28;20094;-93
2022/09/28 06:55:19;;;;;;;0.75;0.75;;;;;;;21.01;66.01;98739.06;5054401;28;20115;-93
2022/09/28 06:57:45;;;;;;;1.35;1.17;;;;;;;21.41;63.54;98779.00;5053451;28;20045;-95
2022/09/28 07:00:11;;;;;;;0.57;0.57;;;;;;;21.50;65.15;98753.34;5053177;28;20031;-94
2022/09/28 07:02:37;;;;;;;0.90;0.90;;;;;;;21.72;63.39;98744.53;5071337;28;20173;-94
2022/09/28 07:05:02;;;;;;;0.55;0.55;;;;;;;21.61;63.16;98711.34;5053064;28;20143;-94
2022/09/28 07:07:28;;;;;;;0.20;0.20;;;;;;;21.86;61.04;98748.84;5052272;28;20500;-92
2022/09/28 07:09:54;;;;;;;0.80;0.80;;;;;;;21.72;60.21;98712.31;5069870;28;20099;-93
2022/09/28 07:12:22;;;;;;;4.00;1.45;;;;;;;22.35;59.96;98737.88;5069594;28;20101;-92
2022/09/28 07:14:48;;;;;;;0.93;0.88;;;;;;;22.33;59.28;98712.09;5052536;28;20028;-93
2022/09/28 07:17:14;;;;;;;1.55;1.05;;;;;;;22.82;59.49;98726.13;5052558;28;20464;-93
2022/09/28 07:19:40;;;;;;;0.10;0.10;;;;;;;23.20;59.33;98722.16;5068859;28;20456;-92
2022/09/28 07:22:05;;;;;;;0.52;0.52;;;;;;;23.41;57.21;98723.03;5051630;28;20040;-91
2022/09/28 07:24:31;;;;;;;0.40;0.40;;;;;;;23.25;55.77;98709.19;5051050;28;20036;-89
2022/09/28 07:26:56;;;;;;;0.40;0.28;;;;;;;23.09;55.84;98719.50;5069145;28;20025;-88
2022/09/28 07:29:21;;;;;;;1.58;1.48;;;;;;;;;;5051230;28;20489;-89
2022/09/28 07:31:47;;;;;;;2.72;1.38;;;;;;;24.07;54.02;98754.34;5070288;28;20070;-92
2022/09/28 07:34:12;;;;;;;1.45;1.30;;;;;;;23.95;54.37;98707.75;5069614;28;20035;-91
2022/09/28 07:36:38;;;;;;;1.67;1.30;;;;;;;23.85;53.98;98730.22;5069794;28;20055;-90
2022/09/28 07:39:04;;;;;;;0.50;0.47;;;;;;;24.31;54.27;98745.97;5069130;28;20559;-89
2022/09/28 07:41:32;;;;;;;1.35;1.05;;;;;;;24.43;53.44;98745.88;5068868;28;20417;-90
2022/09/28 07:44:04;;;;;;;0.50;0.50;;;;;;;24.47;51.93;98701.50;5051105;28;20476;-88
2022/09/28 07:46:34;;;;;;;0.63;0.63;;;;;;;24.56;52.64;98733.03;5069013;28;20081;-89
2022/09/28 07:49:00;;;;;;;0.93;0.93;;;;;;;24.83;52.92;98705.47;5067937;28;20563;-90
2022/09/28 07:51:25;;;;;;;0.70;0.70;;;;;;;24.48;53.73;98679.81;5068957;28;20106;-88
2022/09/28 07:53:53;;;;;;;0.00;0.00;;;;;;;24.48;52.08;98704.06;5069123;28;20123;-89
2022/09/28 07:56:19;;;;;;;0.57;0.55;;;;;;;25.15;51.18;98722.47;5068745;28;20090;-90
2022/09/28 07:58:46;;;;;;;3.55;2.50;;;;;;;25.64;49.98;98746.78;5051212;28;20066;-92
2022/09/28 08:01:15;;;;;;;0.08;0.08;;;;;;;25.29;53.33;98730.16;5069703;28;20504;-91
2022/09/28 08:03:46;;;;;;;0.10;0.10;;;;;;;25.46;51.62;98695.38;5069392;28;20039;-90
2022/09/28 08:06:13;;;;;;;0.77;0.68;;;;;;;26.19;48.84;98732.69;5068963;28;20020;-90
2022/09/28 08:08:43;;;;;;;0.60;0.60;;;;;;;25.90;49.39;98730.84;5051215;28;20035;-90
2022/09/28 08:11:15;;;;;;;0.95;0.95;;;;;;;26.12;48.61;98716.22;5068454;28;20032;-90
2022/09/28 08:13:41;;;;;;;0.70;0.63;;;;;;;25.98;48.88;98681.53;5068570;28;20477;-90
2022/09/28 08:16:07;;;;;;;2.63;1.92;;;;;;;26.40;47.35;98692.78;5068622;28;20044;-89
2022/09/28 08:18:34;;;;;;;1.80;1.65;;;;;;;26.31;46.75;98701.78;5068677;28;20017;-89
2022/09/28 08:23:48;;;;;;;0.40;0.40;;;;;;;25.98;47.75;98711.25;5068818;28;20121;-90
2022/09/28 08:26:14;;;;;;;0.38;0.38;;;;;;;26.22;47.48;98722.44;5068346;28;20060;-89
2022/09/28 08:28:41;;;;;;;1.15;0.82;;;;;;;26.17;47.92;98686.06;5067953;28;20060;-90
2022/09/28 08:31:07;;;;;;;2.63;1.02;;;;;;;26.10;48.14;98696.59;5068375;28;20056;-90
2022/09/28 08:33:33;;;;;;;1.08;0.93;;;;;;;26.19;46.47;98709.22;5069708;28;20036;-89
2022/09/28 08:36:00;;;;;;;1.83;1.05;;;;;;;25.90;48.66;98702.03;5070081;28;20032;-89
2022/09/28 08:38:28;;;;;;;1.88;1.42;;;;;;;25.93;47.69;98719.75;5069836;28;20056;-90
2022/09/28 08:41:12;;;;;;;1.50;1.20;;;;;;;25.82;47.44;98725.34;5069590;28;20497;-89
2022/09/28 08:44:11;;;;;;;2.45;1.13;;;;;;;25.93;48.69;98719.75;5069671;28;20051;-89
2022/09/28 08:46:42;;;;;;;0.20;0.20;;;;;;;25.79;47.17;98691.34;5064629;28;20418;-88
2022/09/28 08:49:13;;;;;;;2.10;0.57;;;;;;;25.57;49.36;98700.63;5051480;28;20024;-90
2022/09/28 08:51:53;;;;;;;0.32;0.28;;;;;;;25.98;48.78;98703.16;5069114;28;20095;-90
2022/09/28 08:54:19;;;;;;;0.68;0.65;;;;;;;25.74;49.24;98726.06;5067103;28;20029;-90
2022/09/28 08:56:53;;;;;;;0.50;0.50;;;;;;;25.99;47.79;98716.50;5068319;28;20044;-91
2022/09/28 08:59:25;;;;;;;1.30;1.05;;;;;;;25.86;46.37;98699.75;5067639;28;20055;-91
2022/09/28 09:02:03;;;;;;;5.50;1.88;;;;;;;25.92;46.47;98702.72;5068112;28;20039;-92
2022/09/28 09:04:32;;;;;;;1.55;1.15;;;;;;;25.78;47.18;98708.56;5050943;28;20037;-90
2022/09/28 09:07:20;;;;;;;1.58;1.48;;;;;;;25.94;45.63;98717.94;5059722;28;20067;-94
2022/09/28 09:10:27;;;;;;;1.58;1.25;;;;;;;26.27;44.68;98705.78;5064733;28;20024;-93
2022/09/28 09:13:22;;;;;;;0.80;0.80;;;;;;;26.03;42.26;98681.97;5030522;28;20431;-95
2022/09/28 09:15:56;;;;;;;1.45;1.33;;;;;;;25.30;45.94;98706.72;5050705;28;20025;-95
2022/09/28 09:18:41;;;;;;;1.10;1.00;;;;;;;25.65;46.29;98687.25;5062899;28;20529;-96
2022/09/28 09:21:40;;;;;;;0.00;0.00;;;;;;;25.70;44.26;98713.81;5065773;28;20509;-96
2022/09/28 09:24:38;;;;;;;0.00;0.00;;;;;;;25.76;43.16;98717.81;5044643;28;20033;-96
2022/09/28 09:27:26;;;;;;;2.10;1.85;;;;;;;25.55;44.15;98727.78;5048943;28;20052;-94
2022/09/28 09:30:03;;;;;;;1.10;0.90;;;;;;;25.26;45.55;98725.03;5068945;28;20421;-96
2022/09/28 09:33:04;;;;;;;0.10;0.10;;;;;;;25.20;45.67;98725.56;5069678;28;20039;-95
2022/09/28 09:35:51;;;;;;;0.65;0.57;;;;;;;25.37;46.24;98711.41;5070488;28;20032;-93
2022/09/28 09:38:23;;;;;;;1.00;0.93;;;;;;;25.38;45.28;98721.22;5069330;28;20049;-93
2022/09/28 09:41:22;;;;;;;1.67;1.58;;;;;;;25.67;42.97;98723.09;5068718;28;20569;-94
2022/09/28 09:44:17;;;;;;;6.55;0.68;;;;;;;25.30;43.21;98685.13;5069614;28;20049;-92
2022/09/28 09:47:05;;;;;;;0.40;0.40;;;;;;;25.26;41.57;98648.63;5020968;28;20040;-93
2022/09/28 09:49:39;;;;;;;0.60;0.60;;;;;;;25.48;41.75;98679.88;5048287;28;20488;-92
2022/09/28 09:52:20;;;;;;;0.15;0.15;;;;;;;25.80;42.07;98684.97;5069471;28;20043;-92
2022/09/28 09:55:10;;;;;;;0.43;0.43;;;;;;;26.15;40.71;98721.34;5070763;28;20097;-90
2022/09/28 09:58:15;;;;;;;0.57;0.57;;;;;;;26.38;40.28;98707.44;5069233;28;20040;-91
2022/09/28 10:00:44;;;;;;;0.50;0.50;;;;;;;26.19;41.36;98686.75;5070247;28;20081;-91
2022/09/28 10:03:25;;;;;;;0.63;0.52;;;;;;;26.35;41.46;98708.59;5070216;28;20036;-89
2022/09/28 10:05:58;;;;;;;0.57;0.50;;;;;;;25.99;42.93;98691.34;5071352;28;20028;-92
2022/09/28 10:08:34;;;;;;;0.52;0.52;;;;;;;26.04;41.69;98687.22;5072968;28;20451;-90
2022/09/28 10:11:11;;;;;;;0.32;0.30;;;;;;;25.79;42.31;98656.25;5074197;28;20081;-89
2022/09/28 10:17:26;;;;;;;1.08;0.95;;;;;;;26.15;43.28;98699.72;5075064;28;20536;-89
2022/09/28 10:19:55;;;;;;;0.00;0.00;;;;;;;25.83;42.81;98663.06;5072481;28;20029;-90
2022/09/28 10:22:23;;;;;;;0.38;0.38;;;;;;;26.15;43.76;98698.84;5072104;28;20456;-89
2022/09/28 10:24:55;;;;;;;0.08;0.08;;;;;;;26.03;43.81;98666.59;5073926;28;20105;-90
2022/09/28 10:27:28;;;;;;;0.30;0.30;;;;;;;25.93;43.98;98630.63;5074022;28;20106;-91
2022/09/28 10:30:08;;;;;;;0.77;0.68;;;;;;;26.22;43.00;98670.25;5073902;28;20033;-89
2022/09/28 10:32:45;;;;;;;0.30;0.28;;;;;;;26.40;42.56;98689.22;5072080;28;20032;-90
2022/09/28 10:35:24;;;;;;;0.35;0.35;;;;;;;26.43;42.91;98694.31;5073433;28;20090;-92
2022/09/28 10:38:13;;;;;;;0.47;0.47;;;;;;;26.40;41.62;98670.28;5073798;28;20042;-89
2022/09/28 10:40:45;;;;;;;0.38;0.38;;;;;;;26.16;40.78;98641.94;5073960;28;20025;-89
2022/09/28 10:46:34;;;;;;;0.43;0.30;;;;;;;26.99;40.84;98673.56;5094860;28;20425;-90
2022/09/28 10:49:14;;;;;;;0.20;0.20;;;;;;;26.94;40.82;98651.53;5093713;28;20028;-89
2022/09/28 10:51:42;;;;;;;0.30;0.30;;;;;;;27.11;40.80;98672.34;5094580;28;20102;-88
2022/09/28 10:54:56;;;;;;;3.00;0.65;;;;;;;27.14;41.77;98679.28;5094538;28;20032;-88
2022/09/28 10:58:04;;;;;;;0.03;0.03;;;;;;;27.00;40.32;98666.31;5094938;28;20059;-88
2022/09/28 11:00:45;;;;;;;0.45;0.40;;;;;;;26.59;40.45;98618.84;5094091;28;20032;-88
2022/09/28 11:03:23;;;;;;;0.50;0.50;;;;;;;26.91;41.10;98633.75;5092925;28;20020;-91
2022/09/28 11:06:21;;;;;;;0.00;0.00;;;;;;;27.04;41.25;98648.75;5093809;28;20024;-88
2022/09/28 11:09:30;;;;;;;0.28;0.28;;;;;;;27.11;40.83;98641.72;5093689;28;20027;-89
2022/09/28 11:12:17;;;;;;;0.50;0.50;;;;;;;27.20;39.16;98629.97;5093988;28;20024;-88
2022/09/28 11:18:54;;;;;;;3.95;1.25;;;;;;;27.13;37.38;98626.19;5092793;28;20062;-88
2022/09/28 11:24:41;;;;;;;0.20;0.10;;;;;;;26.96;38.52;98596.25;5093920;28;20035;-89
2022/09/28 11:27:20;;;;;;;0.08;0.08;;;;;;;27.20;38.09;98586.66;5092931;28;20024;-89
2022/09/28 11:29:54;;;;;;;0.10;0.10;;;;;;;27.07;37.14;98578.94;5092252;28;20097;-91
2022/09/28 11:32:22;;;;;;;0.10;0.10;;;;;;;27.18;35.38;98579.72;5092738;28;20060;-89
2022/09/28 11:34:51;;;;;;;0.10;0.10;;;;;;;26.80;36.18;98572.63;5092319;28;20521;-91
2022/09/28 11:37:33;;;;;;;0.32;0.32;;;;;;;26.90;36.34;98593.34;5092016;28;20020;-90
2022/09/28 11:40:29;;;;;;;2.75;1.83;;;;;;;26.98;36.89;98590.69;5092203;28;20028;-89
2022/09/28 11:42:57;;;;;;;0.05;0.05;;;;;;;27.09;38.02;98571.50;5092019;28;20536;-89
2022/09/28 11:48:49;;;;;;;0.03;0.03;;;;;;;26.83;36.44;98562.47;5093544;28;20146;-88
2022/09/28 11:51:23;;;;;;;0.35;0.10;;;;;;;26.87;36.47;98558.47;5092896;28;20031;-89
2022/09/28 11:53:58;;;;;;;5.55;0.85;;;;;;;26.82;35.64;98534.59;5092617;28;20064;-88
2022/09/28 11:56:42;;;;;;;22.13;1.08;;;;;;;27.19;37.66;98589.50;5093276;28;20497;-87
2022/09/28 11:59:48;;;;;;;0.20;0.20;;;;;;;27.44;35.90;98583.31;5103635;28;20036;-87
2022/09/28 12:02:30;;;;;;;0.22;0.22;;;;;;;27.29;36.62;98584.88;5104442;28;20055;-88
2022/09/28 12:05:30;;;;;;;0.35;0.35;;;;;;;27.45;36.41;98568.78;5099427;28;20028;-89
2022/09/28 12:08:30;;;;;;;0.40;0.40;;;;;;;27.66;36.23;98568.41;5100939;28;20105;-89
2022/09/28 12:21:51;;;;;;;0.30;0.15;;;;;;;27.63;36.09;98562.47;5095106;28;20036;-91
2022/09/28 12:24:44;;;;;;;0.60;0.55;;;;;;;27.91;35.94;98570.41;5093008;28;20074;-90
2022/09/28 12:27:30;;;;;;;0.55;0.55;;;;;;;27.51;35.50;98526.66;5076552;28;20024;-93
2022/09/28 12:30:20;;;;;;;0.28;0.28;;;;;;;27.74;35.15;98539.69;5066416;28;20075;-88
2022/09/28 12:33:08;;;;;;;0.30;0.30;;;;;;;27.83;35.45;98563.09;5091771;28;20032;-90
2022/09/28 12:36:10;;;;;;;0.00;0.00;;;;;;;27.66;36.50;98554.84;5091869;28;20043;-90
2022/09/28 12:39:21;;;;;;;1.15;1.02;;;;;;;27.79;36.34;98562.56;5092789;28;20035;-90
2022/09/28 12:42:10;;;;;;;0.35;0.35;;;;;;;27.81;35.77;98538.03;5091390;28;20111;-90
2022/09/28 12:45:46;;;;;;;0.38;0.30;;;;;;;27.99;36.22;98549.66;5092186;28;20028;-90